createdAt,value
2017-04-30T00:00:03.181Z,1006.93
2017-04-30T00:15:03.088Z,1006.99
2017-04-30T00:30:02.681Z,1006.99
2017-04-30T00:45:03.330Z,1006.96
2017-04-30T01:00:02.838Z,1006.97
2017-04-30T01:15:02.991Z,1007.02
2017-04-30T01:30:03.249Z,1006.97
2017-04-30T01:45:02.413Z,1007.05
2017-04-30T02:00:02.923Z,1006.95
2017-04-30T02:15:02.694Z,1006.93
2017-04-30T02:30:02.548Z,1006.94
2017-04-30T02:45:02.535Z,1007.01
2017-04-30T03:00:03.003Z,1006.92
2017-04-30T03:15:02.928Z,1007.01
2017-04-30T03:30:03.038Z,1007.04
2017-04-30T03:45:02.429Z,1007.02
2017-04-30T04:00:03.006Z,1007.06
2017-04-30T04:15:03.215Z,1007.03
2017-04-30T04:30:02.866Z,1007.03
2017-04-30T04:45:03.315Z,1007.12
2017-04-30T05:00:02.520Z,1007.1
2017-04-30T05:15:03.128Z,1007.12
2017-04-30T05:30:03.215Z,1007.21
2017-04-30T05:45:02.925Z,1007.06
2017-04-30T06:00:03.347Z,1006.93
2017-04-30T06:15:03.013Z,1006.83
2017-04-30T06:30:02.679Z,1006.77
2017-04-30T06:45:02.514Z,1006.69
2017-04-30T07:00:02.839Z,1006.42
2017-04-30T07:15:02.539Z,1006.52
2017-04-30T07:30:03.289Z,1006.4
2017-04-30T07:45:02.691Z,1006.19
2017-04-30T08:00:03.176Z,1005.92
2017-04-30T08:15:03.146Z,1006.08
2017-04-30T08:30:02.791Z,1005.88
2017-04-30T08:45:02.402Z,1005.74
2017-04-30T09:00:02.917Z,1005.33
2017-04-30T09:15:02.982Z,1005.16
2017-04-30T09:30:03.326Z,1005.02
2017-04-30T09:45:02.421Z,1004.8
2017-04-30T10:00:03.255Z,1004.85
2017-04-30T10:15:02.500Z,1004.64
2017-04-30T10:30:02.567Z,1004.46
2017-04-30T10:45:03.158Z,1004.14
2017-04-30T11:00:03.281Z,1003.93
2017-04-30T11:15:03.211Z,1003.84
2017-04-30T11:30:03.059Z,1003.71
2017-04-30T11:45:03.092Z,1003.47
2017-04-30T12:00:03.207Z,1003.49
2017-04-30T12:15:03.156Z,1003.35
2017-04-30T12:30:02.830Z,1003.08
2017-04-30T12:45:03.275Z,1002.77
2017-04-30T13:00:03.238Z,1002.66
2017-04-30T13:15:03.269Z,1002.59
2017-04-30T13:30:02.845Z,1002.32
2017-04-30T13:45:02.675Z,1002.02
2017-04-30T14:00:02.427Z,1001.85
2017-04-30T14:15:02.752Z,1001.69
2017-04-30T14:30:02.650Z,1001.55
2017-04-30T14:45:03.550Z,1001.32
2017-04-30T15:00:02.791Z,1001.03
2017-04-30T15:15:03.325Z,1000.94
2017-04-30T15:30:03.166Z,1000.7
2017-04-30T15:45:02.975Z,1000.44
2017-04-30T16:00:02.739Z,1000.28
2017-04-30T16:15:02.949Z,1000.23
2017-04-30T16:30:02.605Z,1000.44
2017-04-30T16:45:03.037Z,1000.15
2017-04-30T17:00:02.887Z,1000.09
2017-04-30T17:15:03.086Z,1000.04
2017-04-30T17:30:02.742Z,1000.02
2017-04-30T17:45:02.873Z,1000
2017-04-30T18:00:02.544Z,1000.04
2017-04-30T18:15:03.323Z,1000.15
2017-04-30T18:30:02.663Z,1000.08
2017-04-30T18:45:03.101Z,1000.18
2017-04-30T19:00:03.067Z,1000.19
2017-04-30T19:15:02.545Z,1000.2
2017-04-30T19:30:03.215Z,1000.21
2017-04-30T19:45:03.341Z,1000.44
2017-04-30T20:00:02.929Z,1000.42
2017-04-30T20:15:02.608Z,1000.39
2017-04-30T20:30:03.286Z,1000.5
2017-04-30T20:45:02.857Z,1000.61
2017-04-30T21:00:03.318Z,1000.51
2017-04-30T21:15:02.518Z,1000.44
2017-04-30T21:30:03.152Z,1000.46
2017-04-30T21:45:02.721Z,1000.37
2017-04-30T22:00:03.310Z,1000.4
2017-04-30T22:15:02.448Z,1000.33
2017-04-30T22:30:02.917Z,1000.33
2017-04-30T22:45:02.388Z,1000.2
2017-04-30T23:00:03.176Z,1000.04
2017-04-30T23:15:03.184Z,1000.2
2017-04-30T23:30:02.932Z,1000.02
2017-04-30T23:45:02.458Z,1000.01
